This is the latest recevied weather packets stored in our database for station/object IZ1UQG-2. If no packets are shown the sender has not sent any weather packets the latest 10 day(s).
| Time | Temp. | Humidity | Pressure | Rain* | Wind** | Luminosity | Snow |
|---|---|---|---|---|---|---|---|
| 1777302369 | 24.44° C | 44% | 1012.2 hPa | 0 mm | - | 476 W/m² | - |
| 1777302009 | 24.44° C | 44% | 1012.2 hPa | 0 mm | - | 431 W/m² | - |
| 1777301709 | 24.44° C | 45% | 1012.2 hPa | 0 mm | - | 429 W/m² | - |
| 1777299788 | 25° C | 44% | 1012.5 hPa | 0 mm | - | 543 W/m² | - |
| 1777299669 | 25° C | 45% | 1012.5 hPa | 0 mm | - | 573 W/m² | - |
| 1777299309 | 24.44° C | 47% | 1012.7 hPa | 0 mm | - | 591 W/m² | - |
| 1777299009 | 23.89° C | 46% | 1012.9 hPa | 0 mm | - | 605 W/m² | - |
| 1777298769 | 23.89° C | 46% | 1013 hPa | 0 mm | - | 606 W/m² | - |
| 1777298709 | 23.89° C | 46% | 1012.9 hPa | 0 mm | - | 599 W/m² | - |
| 1777298528 | 23.89° C | 46% | 1013 hPa | 0 mm | - | 624 W/m² | - |
| 1777298168 | 24.44° C | 44% | 1013 hPa | 0 mm | - | 624 W/m² | - |
| 1777297269 | 24.44° C | 44% | 1013.3 hPa | 0 mm | - | 657 W/m² | - |
| 1777296068 | 23.89° C | 44% | 1013.5 hPa | 0 mm | - | 693 W/m² | - |
| 1777296009 | 24.44° C | 45% | 1013.6 hPa | 0 mm | - | 694 W/m² | - |
| 1777295529 | 24.44° C | 44% | 1013.6 hPa | 0 mm | - | 689 W/m² | - |
| 1777295289 | 24.44° C | 43% | 1013.6 hPa | 0 mm | - | 708 W/m² | - |
| 1777295169 | 24.44° C | 44% | 1013.8 hPa | 0 mm | - | 723 W/m² | - |
| 1777294748 | 24.44° C | 45% | 1013.8 hPa | 0 mm | - | 728 W/m² | - |
| 1777293909 | 23.89° C | 47% | 1013.9 hPa | 0 mm | - | 745 W/m² | - |
| 1777293608 | 24.44° C | 46% | 1014 hPa | 0 mm | - | 751 W/m² | - |
| 1777293489 | 24.44° C | 46% | 1014 hPa | 0 mm | - | 751 W/m² | - |
| 1777292648 | 23.89° C | 47% | 1014.2 hPa | 0 mm | - | 751 W/m² | - |
| 1777292350 | 23.33° C | 48% | 1014.2 hPa | 0 mm | - | 761 W/m² | - |
| 1777291628 | 23.89° C | 49% | 1014.2 hPa | 0 mm | - | 791 W/m² | - |
| 1777290968 | 23.33° C | 49% | 1014.4 hPa | 0 mm | - | 789 W/m² | - |
* Rain latest hour (hover to see other rain measurements)
** Current wind speed in m/s (hover to see current wind gust speed)